Time;durP1;ratioP1;P1;durP2;ratioP2;P2;SDS_P1;SDS_P2;PMS_P1;PMS_P2;Temp;Humidity;BMP_temperature;BMP_pressure;BME280_temperature;BME280_humidity;BME280_pressure;Samples;Min_cycle;Max_cycle;Signal;HPM_P1;HPM_P2
2023/02/16 00:00:50;;;;;;;33.70;18.88;;;7.70;1.00;;;;;;6315083;22;20175;-87
2023/02/16 00:03:32;;;;;;;30.48;18.90;;;7.70;1.00;;;;;;6310747;22;20221;-86
2023/02/16 00:06:16;;;;;;;;;;;;;;;;;;;;;
2023/02/16 00:19:49;;;;;;;34.20;19.80;;;7.60;1.00;;;;;;6122927;23;20219;-87
2023/02/16 00:25:52;;;;;;;31.33;19.00;;;7.60;1.00;;;;;;6240689;23;20157;-86
2023/02/16 00:28:43;;;;;;;33.88;19.25;;;7.50;1.00;;;;;;6299663;22;20158;-85
2023/02/16 00:32:03;;;;;;;30.60;18.77;;;7.50;1.00;;;;;;6336633;22;20610;-86
2023/02/16 00:34:34;;;;;;;27.38;18.17;;;7.60;1.00;;;;;;6299127;22;20139;-85
2023/02/16 00:37:12;;;;;;;29.05;19.10;;;7.50;1.00;;;;;;6340315;22;20135;-86
2023/02/16 00:42:56;;;;;;;30.35;19.13;;;7.50;1.00;;;;;;6321758;22;20548;-86
2023/02/16 00:45:29;;;;;;;34.08;19.92;;;7.50;1.00;;;;;;6337550;22;20530;-86
2023/02/16 00:48:05;;;;;;;30.75;19.50;;;7.50;1.00;;;;;;6338279;22;20219;-86
2023/02/16 00:53:38;;;;;;;28.45;17.90;;;7.40;1.00;;;;;;6319804;22;20162;-87
2023/02/16 00:56:21;;;;;;;31.55;18.88;;;7.40;1.00;;;;;;6335659;22;20141;-87
2023/02/16 00:59:12;;;;;;;31.75;19.73;;;7.40;1.00;;;;;;6307156;22;20139;-87
2023/02/16 01:01:40;;;;;;;32.58;19.85;;;7.30;1.00;;;;;;6336057;22;20474;-87
2023/02/16 01:04:12;;;;;;;33.85;19.58;;;7.30;1.00;;;;;;6335846;22;20161;-87
2023/02/16 01:12:21;;;;;;;33.53;19.63;;;7.20;1.00;;;;;;6337199;22;20616;-86
2023/02/16 01:14:53;;;;;;;30.60;18.58;;;7.20;1.00;;;;;;6335502;22;20131;-86
2023/02/16 01:17:21;;;;;;;34.20;18.95;;;7.20;1.00;;;;;;6309812;22;20147;-87
2023/02/16 01:20:06;;;;;;;;;;;;;;;;;;;;;
2023/02/16 01:23:07;;;;;;;31.83;19.80;;;7.20;1.00;;;;;;6336937;22;20222;-87
2023/02/16 01:25:43;;;;;;;31.90;18.70;;;7.10;1.00;;;;;;6337935;22;20135;-87
2023/02/16 01:28:22;;;;;;;33.45;20.02;;;7.10;1.00;;;;;;6337519;22;20527;-87
2023/02/16 01:30:55;;;;;;;31.05;19.83;;;7.10;1.00;;;;;;6308130;22;20186;-87
2023/02/16 01:33:33;;;;;;;;;;;;;;;;;;;;;
2023/02/16 01:36:16;;;;;;;;;;;;;;;;;;;;;
2023/02/16 01:39:05;;;;;;;34.90;19.30;;;7.10;1.00;;;;;;6313691;22;20359;-87
2023/02/16 01:45:14;;;;;;;29.52;18.33;;;7.00;1.00;;;;;;6282534;22;20163;-87
2023/02/16 01:47:54;;;;;;;30.00;19.77;;;7.00;1.00;;;;;;6257439;22;20183;-87
2023/02/16 01:50:26;;;;;;;31.55;19.83;;;7.00;1.00;;;;;;6315029;22;20179;-87
2023/02/16 01:53:13;;;;;;;31.70;18.50;;;6.90;1.00;;;;;;6326272;22;20728;-88
2023/02/16 01:55:43;;;;;;;32.20;18.73;;;6.90;1.00;;;;;;6327152;22;20189;-87
2023/02/16 01:58:47;;;;;;;35.50;20.85;;;6.80;1.00;;;;;;6327460;22;20449;-87
2023/02/16 02:01:41;;;;;;;32.47;18.95;;;6.80;1.00;;;;;;6233538;22;20851;-87
2023/02/16 02:07:10;;;;;;;31.73;18.38;;;6.80;1.00;;;;;;6306875;22;20201;-87
2023/02/16 02:10:00;;;;;;;;;;;;;;;;;;;;;
2023/02/16 02:12:38;;;;;;;29.40;19.65;;;6.80;1.00;;;;;;6306612;22;20218;-87
2023/02/16 02:15:17;;;;;;;32.55;18.90;;;6.80;1.00;;;;;;6305418;22;20136;-87
2023/02/16 02:18:27;;;;;;;30.98;18.73;;;6.80;1.00;;;;;;6305613;22;20475;-87
2023/02/16 02:24:54;;;;;;;30.02;17.73;;;6.70;1.00;;;;;;6178816;23;20228;-87
2023/02/16 02:27:31;;;;;;;29.02;18.27;;;6.70;1.00;;;;;;6153549;23;20163;-87
2023/02/16 02:30:37;;;;;;;28.95;18.40;;;6.70;1.00;;;;;;6253750;22;20195;-87
2023/02/16 02:33:21;;;;;;;29.48;18.58;;;6.60;1.00;;;;;;6305652;22;20203;-86
2023/02/16 02:36:09;;;;;;;30.20;18.90;;;6.60;1.00;;;;;;6305166;22;20583;-87
2023/02/16 02:38:53;;;;;;;33.92;20.50;;;6.60;1.00;;;;;;6305046;22;20222;-87
2023/02/16 02:44:25;;;;;;;33.53;18.85;;;6.50;1.00;;;;;;6303803;22;20208;-87
2023/02/16 02:46:51;;;;;;;31.10;19.75;;;6.50;1.00;;;;;;6278263;22;20155;-87
2023/02/16 02:49:17;;;;;;;29.02;18.27;;;6.40;1.00;;;;;;6305289;22;20205;-86
2023/02/16 02:51:46;;;;;;;28.30;17.67;;;6.40;1.00;;;;;;6304865;22;20179;-87
2023/02/16 03:03:16;;;;;;;32.22;18.98;;;6.40;1.00;;;;;;6304664;22;20655;-88
2023/02/16 03:05:50;;;;;;;37.65;18.67;;;6.40;1.00;;;;;;6305611;22;20685;-87
2023/02/16 03:08:30;;;;;;;31.75;18.77;;;6.40;1.00;;;;;;6277637;22;20468;-87
2023/02/16 03:13:47;;;;;;;34.20;20.33;;;6.40;1.00;;;;;;6303632;22;20195;-87
2023/02/16 03:16:27;;;;;;;36.17;21.20;;;6.30;1.00;;;;;;6304382;22;20587;-87
2023/02/16 03:30:15;;;;;;;36.45;20.77;;;6.20;1.00;;;;;;6306960;22;20187;-86
2023/02/16 03:32:43;;;;;;;36.85;20.33;;;6.20;1.00;;;;;;6306186;22;20639;-87
2023/02/16 03:35:17;;;;;;;36.25;21.83;;;6.20;1.00;;;;;;6307523;22;20151;-87
2023/02/16 03:38:03;;;;;;;36.55;19.52;;;6.20;1.00;;;;;;6307463;22;20233;-87
2023/02/16 03:40:52;;;;;;;31.90;19.13;;;6.20;1.00;;;;;;6279053;22;20175;-87
2023/02/16 03:43:27;;;;;;;39.33;20.38;;;6.20;1.00;;;;;;6304816;22;20135;-86
2023/02/16 03:46:03;;;;;;;34.85;20.30;;;6.20;1.00;;;;;;6276829;22;20147;-87
2023/02/16 03:48:36;;;;;;;35.80;19.27;;;6.20;1.00;;;;;;6304713;22;20594;-87
2023/02/16 03:51:01;;;;;;;36.42;21.55;;;6.20;1.00;;;;;;6276469;22;20191;-87
2023/02/16 03:53:32;;;;;;;34.70;19.43;;;6.20;1.00;;;;;;6277916;22;20151;-87
2023/02/16 03:55:59;;;;;;;35.53;20.55;;;6.20;1.00;;;;;;6304439;22;20210;-87
2023/02/16 03:58:27;;;;;;;36.13;20.38;;;6.20;1.00;;;;;;6304940;22;20570;-86
2023/02/16 04:01:08;;;;;;;29.40;19.42;;;6.10;1.00;;;;;;6276902;22;20176;-87
2023/02/16 04:04:05;;;;;;;38.40;21.25;;;6.20;1.00;;;;;;6303948;22;20136;-86
2023/02/16 04:09:26;;;;;;;33.40;20.48;;;6.10;1.00;;;;;;6302757;22;20228;-87
2023/02/16 04:14:44;;;;;;;34.97;19.70;;;6.00;1.00;;;;;;6304020;22;20147;-88
2023/02/16 04:17:38;;;;;;;36.45;19.98;;;6.00;1.00;;;;;;6277159;22;20193;-87
2023/02/16 04:20:16;;;;;;;35.83;20.33;;;6.00;14.90;;;;;;6302745;22;20250;-86
2023/02/16 04:22:44;;;;;;;34.80;21.20;;;6.00;20.40;;;;;;6277312;22;20148;-87
2023/02/16 04:25:10;;;;;;;37.00;21.20;;;6.00;28.60;;;;;;6302371;22;20590;-87
2023/02/16 04:27:39;;;;;;;35.00;19.98;;;5.90;43.10;;;;;;6276933;22;20598;-87
2023/02/16 04:30:13;;;;;;;36.33;20.60;;;5.90;78.80;;;;;;6303612;22;20182;-87
2023/02/16 04:32:40;;;;;;;36.70;21.50;;;5.90;99.90;;;;;;6276659;22;20139;-87
2023/02/16 04:35:16;;;;;;;35.05;22.17;;;5.90;99.90;;;;;;6276763;22;20156;-86
2023/02/16 04:37:45;;;;;;;39.05;21.38;;;5.90;99.90;;;;;;6303719;22;20159;-86
2023/02/16 04:40:15;;;;;;;37.55;22.73;;;5.90;99.90;;;;;;6306301;22;20171;-86
2023/02/16 04:42:44;;;;;;;33.47;20.35;;;5.90;99.90;;;;;;6304975;22;20144;-86
2023/02/16 04:45:10;;;;;;;41.30;22.67;;;5.90;99.90;;;;;;6307019;22;20148;-87
2023/02/16 04:47:45;;;;;;;79.05;33.28;;;5.90;99.90;;;;;;6309354;22;20151;-87
2023/02/16 04:50:11;;;;;;;34.80;18.17;;;5.80;99.90;;;;;;6304039;22;20175;-86
2023/02/16 04:52:54;;;;;;;40.97;20.30;;;5.80;99.90;;;;;;6302910;22;20150;-86
2023/02/16 04:55:32;;;;;;;;;;;;;;;;;;;;;
2023/02/16 04:58:12;;;;;;;37.45;21.13;;;5.80;99.90;;;;;;6303041;22;20198;-87
2023/02/16 05:00:50;;;;;;;41.35;22.30;;;5.70;99.90;;;;;;6276162;22;20186;-87
2023/02/16 05:03:39;;;;;;;60.17;29.25;;;5.70;99.90;;;;;;6303454;22;20135;-86
2023/02/16 05:06:19;;;;;;;98.88;42.05;;;5.70;99.90;;;;;;6304355;22;20200;-86
2023/02/16 05:08:52;;;;;;;45.45;24.50;;;5.70;99.90;;;;;;6302901;22;20590;-85
2023/02/16 05:17:02;;;;;;;33.58;21.38;;;5.90;99.90;;;;;;6303718;22;20190;-88
2023/02/16 05:19:38;;;;;;;34.40;20.40;;;5.90;99.90;;;;;;6276158;22;20175;-87
2023/02/16 05:22:04;;;;;;;33.30;20.67;;;5.90;99.90;;;;;;6304905;22;20142;-87
2023/02/16 05:24:29;;;;;;;37.40;21.20;;;6.00;99.90;;;;;;6277984;22;20615;-86
2023/02/16 05:26:58;;;;;;;35.30;20.27;;;6.00;99.90;;;;;;6304564;22;20385;-87
2023/02/16 05:29:23;;;;;;;33.80;21.23;;;6.00;99.90;;;;;;6305183;22;20258;-86
2023/02/16 05:31:49;;;;;;;32.03;19.83;;;6.00;99.90;;;;;;6304636;22;20195;-87
2023/02/16 05:34:20;;;;;;;37.03;19.93;;;6.00;99.90;;;;;;6278050;22;20226;-87
2023/02/16 05:36:55;;;;;;;;;;;;;;;;;;;;;
2023/02/16 05:39:23;;;;;;;41.15;22.25;;;6.00;99.90;;;;;;6304725;22;20258;-87
2023/02/16 05:41:51;;;;;;;34.15;20.50;;;6.10;99.90;;;;;;6305091;22;20151;-87
2023/02/16 05:44:38;;;;;;;62.35;33.90;;;6.10;99.90;;;;;;6304336;22;20210;-87
2023/02/16 05:47:27;;;;;;;42.40;24.75;;;6.10;1.00;;;;;;6306364;22;20144;-86
2023/02/16 05:49:52;;;;;;;32.53;20.65;;;6.10;1.00;;;;;;6304316;22;20168;-87
2023/02/16 05:52:18;;;;;;;71.63;35.60;;;6.10;1.00;;;;;;6305196;22;20155;-87
2023/02/16 05:54:48;;;;;;;80.93;39.60;;;6.10;1.00;;;;;;6305198;22;20148;-87
2023/02/16 05:57:14;;;;;;;37.63;21.45;;;6.10;1.00;;;;;;6305668;22;20132;-86
2023/02/16 05:59:42;;;;;;;34.77;21.57;;;6.10;1.00;;;;;;6276911;22;20262;-87
2023/02/16 06:02:28;;;;;;;;;;;;;;;;;;;;;
2023/02/16 06:05:13;;;;;;;37.35;21.30;;;6.10;99.90;;;;;;6307508;22;20227;-87
2023/02/16 06:07:51;;;;;;;;;;;;;;;;;;;;;
2023/02/16 06:10:54;;;;;;;;;;;;;;;;;;;;;
2023/02/16 06:13:23;;;;;;;169.75;60.47;;;6.20;99.90;;;;;;6302372;22;20230;-87
2023/02/16 06:15:58;;;;;;;106.75;40.13;;;6.10;99.90;;;;;;6304662;22;20155;-87
2023/02/16 06:18:44;;;;;;;163.25;71.38;;;6.20;99.90;;;;;;6305245;22;20134;-86
2023/02/16 06:21:11;;;;;;;33.03;20.23;;;6.10;99.90;;;;;;6303859;22;20163;-87
2023/02/16 06:23:39;;;;;;;36.17;20.35;;;6.10;99.90;;;;;;6303872;22;20148;-86
2023/02/16 06:26:05;;;;;;;30.73;20.02;;;6.20;99.90;;;;;;6303303;22;20158;-86
2023/02/16 06:28:33;;;;;;;69.90;36.77;;;6.20;99.90;;;;;;6276716;22;20159;-87
2023/02/16 06:31:18;;;;;;;39.28;21.23;;;6.20;54.60;;;;;;6304174;22;20840;-88
2023/02/16 06:33:44;;;;;;;94.95;46.80;;;6.30;99.90;;;;;;6304107;22;20139;-87
2023/02/16 06:36:10;;;;;;;39.43;23.20;;;6.30;88.00;;;;;;6277596;22;20239;-87
2023/02/16 06:38:36;;;;;;;62.42;31.38;;;6.30;99.90;;;;;;6305048;22;20163;-86
2023/02/16 06:41:04;;;;;;;30.97;19.73;;;6.30;99.90;;;;;;6306241;22;20221;-86
2023/02/16 06:43:29;;;;;;;84.32;42.25;;;6.30;99.90;;;;;;6305113;22;20163;-86
2023/02/16 06:45:58;;;;;;;78.33;38.87;;;6.30;99.90;;;;;;6307019;22;20144;-86
2023/02/16 06:48:33;;;;;;;;;;;;;;;;;;;;;
2023/02/16 06:51:24;;;;;;;34.70;21.30;;;6.30;99.90;;;;;;6304657;22;20902;-87
2023/02/16 06:54:07;;;;;;;35.97;23.13;;;6.40;99.90;;;;;;6306312;22;20513;-86
2023/02/16 06:56:35;;;;;;;40.78;20.88;;;6.50;99.90;;;;;;6306572;22;20136;-86
2023/02/16 06:59:03;;;;;;;35.17;21.23;;;6.60;99.90;;;;;;6306770;22;20171;-85
2023/02/16 07:01:30;;;;;;;33.05;21.40;;;6.60;99.90;;;;;;6280002;22;20164;-85
2023/02/16 07:04:09;;;;;;;;;;;;;;;;;;;;;
2023/02/16 07:06:35;;;;;;;29.65;19.00;;;6.80;99.90;;;;;;6309495;22;20219;-86
2023/02/16 07:09:00;;;;;;;31.40;20.57;;;6.90;8.40;;;;;;6308068;22;20178;-86
2023/02/16 07:11:28;;;;;;;36.90;21.07;;;7.00;1.00;;;;;;6306828;22;20225;-86
2023/02/16 07:13:55;;;;;;;30.98;19.65;;;7.10;1.00;;;;;;6307547;22;20155;-86
2023/02/16 07:16:30;;;;;;;34.17;17.95;;;7.10;1.00;;;;;;6307988;22;20223;-86
2023/02/16 07:19:04;;;;;;;30.77;18.83;;;7.10;1.00;;;;;;6306184;22;20128;-86
2023/02/16 07:21:57;;;;;;;29.35;18.27;;;7.20;1.00;;;;;;6280008;22;20534;-85
2023/02/16 07:24:22;;;;;;;30.00;18.38;;;7.20;1.00;;;;;;6306601;22;20193;-87
2023/02/16 07:26:48;;;;;;;28.60;17.83;;;7.20;1.00;;;;;;6307580;22;20155;-86
2023/02/16 07:29:28;;;;;;;31.37;17.30;;;7.20;1.00;;;;;;6283294;22;20176;-86
2023/02/16 07:32:03;;;;;;;26.55;16.90;;;7.20;1.00;;;;;;6280187;22;20254;-86
2023/02/16 07:34:56;;;;;;;30.80;19.23;;;7.20;1.00;;;;;;6278549;22;20151;-86
2023/02/16 07:37:24;;;;;;;32.40;17.98;;;7.30;1.00;;;;;;6307015;22;20484;-86
2023/02/16 07:39:52;;;;;;;30.15;17.90;;;7.40;1.00;;;;;;6307341;22;20334;-86
2023/02/16 07:42:28;;;;;;;31.85;18.88;;;7.40;1.00;;;;;;6306239;22;20155;-87
2023/02/16 07:45:13;;;;;;;27.27;15.85;;;7.50;1.00;;;;;;6306325;22;20205;-87
2023/02/16 07:47:41;;;;;;;27.33;17.42;;;7.50;1.00;;;;;;6310476;22;20139;-86
2023/02/16 07:50:21;;;;;;;27.20;18.50;;;7.70;99.90;;;;;;6312796;22;20261;-87
2023/02/16 07:52:47;;;;;;;30.27;17.58;;;7.90;99.90;;;;;;6277516;22;20150;-88
2023/02/16 07:55:14;;;;;;;32.37;18.33;;;8.00;99.90;;;;;;6305088;22;20236;-88
2023/02/16 07:57:40;;;;;;;27.33;17.00;;;8.10;99.90;;;;;;6305559;22;20154;-88
2023/02/16 08:00:11;;;;;;;30.90;18.93;;;8.20;96.40;;;;;;6305729;22;20780;-87
2023/02/16 08:03:10;;;;;;;30.42;17.30;;;8.20;37.40;;;;;;6304850;22;20139;-87
2023/02/16 08:05:45;;;;;;;31.02;19.23;;;8.40;11.60;;;;;;6306175;22;20230;-87
2023/02/16 08:08:11;;;;;;;29.00;17.57;;;8.80;1.00;;;;;;6305820;22;20162;-87
2023/02/16 08:10:36;;;;;;;29.27;16.23;;;9.20;1.00;;;;;;6305032;22;20931;-87
2023/02/16 08:13:02;;;;;;;25.60;16.77;;;9.90;1.00;;;;;;6306267;22;20548;-88
2023/02/16 08:15:27;;;;;;;27.07;15.63;;;11.50;1.00;;;;;;6278142;22;20183;-88
2023/02/16 08:17:53;;;;;;;28.47;16.10;;;13.60;99.90;;;;;;6316875;22;20217;-87
2023/02/16 08:20:18;;;;;;;26.50;16.90;;;14.10;99.90;;;;;;6301910;22;20198;-87
2023/02/16 08:22:44;;;;;;;27.80;18.10;;;13.60;99.90;;;;;;6297808;22;20670;-87
2023/02/16 08:25:10;;;;;;;30.70;18.03;;;13.20;99.90;;;;;;6307097;22;20148;-86
2023/02/16 08:27:36;;;;;;;24.60;18.10;;;12.80;99.90;;;;;;6304448;22;20506;-86
2023/02/16 08:30:20;;;;;;;24.20;17.97;;;12.50;99.90;;;;;;6306663;22;20418;-87
2023/02/16 08:33:00;;;;;;;23.13;18.03;;;12.30;99.90;;;;;;6302466;22;20151;-87
2023/02/16 08:35:31;;;;;;;33.70;18.63;;;12.30;99.90;;;;;;6276363;22;20457;-87
2023/02/16 08:38:16;;;;;;;25.20;16.67;;;12.50;99.90;;;;;;6283208;22;20394;-88
2023/02/16 08:40:55;;;;;;;26.80;16.30;;;13.00;99.90;;;;;;6305740;22;20402;-88
2023/02/16 08:43:31;;;;;;;39.03;22.80;;;13.70;99.90;;;;;;6303685;22;20379;-88
2023/02/16 08:45:56;;;;;;;56.93;28.47;;;15.10;99.90;;;;;;6303864;22;20389;-87
2023/02/16 08:48:24;;;;;;;25.67;17.13;;;15.60;99.90;;;;;;6304684;22;20442;-86
2023/02/16 08:50:53;;;;;;;36.50;22.50;;;15.20;99.90;;;;;;6304240;22;20196;-86
2023/02/16 08:53:34;;;;;;;65.10;30.60;;;14.80;99.90;;;;;;6306522;22;20381;-86
2023/02/16 08:56:02;;;;;;;45.17;25.90;;;14.70;99.90;;;;;;6304125;22;20372;-88
2023/02/16 08:58:36;;;;;;;44.33;26.97;;;15.00;99.90;;;;;;6303229;22;20386;-88
2023/02/16 09:01:15;;;;;;;;;;;;;;;;;;;;;
2023/02/16 09:03:42;;;;;;;75.47;38.80;;;14.90;99.90;;;;;;6305169;22;20438;-86
2023/02/16 09:06:19;;;;;;;37.80;25.10;;;14.90;99.90;;;;;;6304970;22;20403;-86
2023/02/16 09:08:48;;;;;;;25.03;18.43;;;14.80;99.90;;;;;;6306655;22;20413;-86
2023/02/16 09:11:15;;;;;;;27.60;17.37;;;14.60;99.90;;;;;;6306584;22;21058;-86
2023/02/16 09:14:03;;;;;;;23.47;17.57;;;14.40;99.90;;;;;;6307252;22;20377;-86
2023/02/16 09:16:45;;;;;;;24.07;17.73;;;14.10;99.90;;;;;;6308876;22;20425;-87
2023/02/16 09:19:19;;;;;;;26.10;17.50;;;13.90;99.90;;;;;;6311429;22;20393;-87
2023/02/16 09:21:53;;;;;;;32.57;18.73;;;13.60;99.90;;;;;;6311275;22;20379;-86
2023/02/16 09:24:18;;;;;;;30.70;18.20;;;13.40;99.90;;;;;;6310314;22;20359;-86
2023/02/16 09:26:44;;;;;;;28.40;18.53;;;13.20;99.90;;;;;;6312175;22;20469;-86
2023/02/16 09:29:44;;;;;;;25.87;18.23;;;13.10;99.90;;;;;;6315623;22;20168;-87
2023/02/16 09:32:10;;;;;;;25.43;17.53;;;13.00;99.90;;;;;;6308626;22;20139;-86
2023/02/16 09:34:45;;;;;;;26.50;17.73;;;13.00;99.90;;;;;;6307303;22;20371;-87
2023/02/16 09:37:12;;;;;;;25.83;16.90;;;13.00;99.90;;;;;;6304039;22;20378;-86
2023/02/16 09:39:38;;;;;;;24.70;17.03;;;13.00;99.90;;;;;;6309626;22;20449;-89
2023/02/16 09:42:31;;;;;;;26.17;17.90;;;13.00;99.90;;;;;;6307984;22;21025;-86
2023/02/16 09:45:10;;;;;;;24.00;17.53;;;13.10;99.90;;;;;;6280820;22;20243;-86
2023/02/16 09:47:43;;;;;;;27.57;19.10;;;13.10;99.90;;;;;;6307242;22;20831;-86
2023/02/16 09:50:23;;;;;;;27.70;17.93;;;13.10;99.90;;;;;;6307877;22;20428;-87
2023/02/16 09:53:22;;;;;;;27.43;19.60;;;13.00;99.90;;;;;;6308827;22;20358;-86
2023/02/16 09:56:01;;;;;;;24.10;17.20;;;13.00;99.90;;;;;;6260354;22;20382;-86
2023/02/16 09:59:09;;;;;;;24.13;17.70;;;12.90;99.90;;;;;;6281986;22;20706;-86
2023/02/16 10:01:53;;;;;;;31.60;18.50;;;12.70;99.90;;;;;;6182897;23;20444;-90
2023/02/16 10:04:46;;;;;;;25.60;17.00;;;12.60;99.90;;;;;;6184355;23;20381;-86
2023/02/16 10:07:36;;;;;;;28.40;17.27;;;12.70;99.90;;;;;;6281493;22;20427;-87
2023/02/16 10:10:05;;;;;;;24.70;16.63;;;12.80;99.90;;;;;;6308902;22;20803;-86
2023/02/16 10:12:40;;;;;;;26.73;17.13;;;12.90;99.90;;;;;;6281539;22;20400;-86
2023/02/16 10:15:19;;;;;;;24.43;19.00;;;13.10;99.90;;;;;;6282743;22;20370;-86
2023/02/16 10:17:52;;;;;;;25.60;17.43;;;13.20;99.90;;;;;;6308192;22;20354;-85
2023/02/16 10:20:34;;;;;;;24.57;18.00;;;13.10;99.90;;;;;;6280464;22;20413;-87
2023/02/16 10:23:15;;;;;;;24.87;18.23;;;12.90;99.90;;;;;;6309567;22;20384;-86
2023/02/16 10:25:53;;;;;;;26.33;16.27;;;12.80;99.90;;;;;;6282731;22;20380;-86
2023/02/16 10:28:52;;;;;;;27.17;18.27;;;12.50;99.90;;;;;;6309754;22;20358;-86
2023/02/16 10:31:33;;;;;;;24.47;17.63;;;12.30;99.90;;;;;;6267036;22;20425;-86
2023/02/16 10:34:13;;;;;;;23.43;17.27;;;12.20;99.90;;;;;;6280098;22;20420;-88
2023/02/16 10:37:08;;;;;;;23.50;17.00;;;12.00;99.90;;;;;;6281785;22;20689;-87
2023/02/16 10:40:04;;;;;;;31.53;17.80;;;12.00;99.90;;;;;;6338556;22;20412;-86
2023/02/16 10:42:42;;;;;;;27.10;17.70;;;11.90;99.90;;;;;;6344376;22;20372;-86
2023/02/16 10:45:28;;;;;;;24.80;17.53;;;11.90;99.90;;;;;;6343908;22;20376;-87
2023/02/16 10:47:54;;;;;;;29.43;19.10;;;11.90;99.90;;;;;;6345263;22;20436;-86
2023/02/16 10:50:29;;;;;;;23.70;17.17;;;11.90;99.90;;;;;;6345501;22;20416;-86
2023/02/16 10:53:16;;;;;;;27.90;18.70;;;12.00;99.90;;;;;;6317648;22;20150;-86
2023/02/16 10:55:43;;;;;;;33.17;19.77;;;12.10;99.90;;;;;;6344593;22;20346;-86
2023/02/16 10:58:23;;;;;;;26.43;18.03;;;12.20;99.90;;;;;;6318527;22;20388;-89
2023/02/16 11:01:14;;;;;;;25.50;17.30;;;12.40;99.90;;;;;;6346643;22;20430;-88
2023/02/16 11:03:45;;;;;;;26.20;19.57;;;12.70;99.90;;;;;;6347309;22;20350;-87
2023/02/16 11:06:25;;;;;;;29.70;19.30;;;12.90;99.90;;;;;;6320987;22;20377;-86
2023/02/16 11:09:11;;;;;;;;;;;;;;;;;;;;;
2023/02/16 11:11:55;;;;;;;31.70;18.80;;;13.50;99.90;;;;;;6340041;22;20525;-87
2023/02/16 11:15:10;;;;;;;25.57;18.30;;;13.70;99.90;;;;;;6312742;22;20406;-86
2023/02/16 11:17:51;;;;;;;27.57;19.50;;;13.70;99.90;;;;;;6299298;22;20435;-86
2023/02/16 11:20:40;;;;;;;26.97;18.60;;;13.60;99.90;;;;;;6338931;22;20428;-87
2023/02/16 11:23:21;;;;;;;26.57;19.30;;;13.50;99.90;;;;;;6340780;22;20418;-87
2023/02/16 11:26:02;;;;;;;25.73;19.50;;;13.40;99.90;;;;;;6313274;22;20391;-86
2023/02/16 11:28:42;;;;;;;25.70;18.93;;;13.40;99.90;;;;;;6342776;22;20483;-87
2023/02/16 11:31:17;;;;;;;28.53;19.70;;;13.30;99.90;;;;;;6343482;22;20465;-86
2023/02/16 11:34:12;;;;;;;27.53;17.90;;;13.30;99.90;;;;;;6343415;22;20959;-86
2023/02/16 11:36:43;;;;;;;28.27;17.97;;;13.20;99.90;;;;;;6316294;22;20369;-86
2023/02/16 11:39:40;;;;;;;28.70;18.60;;;13.20;99.90;;;;;;6314710;22;20407;-86
2023/02/16 11:42:21;;;;;;;27.83;18.10;;;13.20;99.90;;;;;;6268972;22;20386;-86
2023/02/16 11:45:13;;;;;;;26.20;20.10;;;13.10;99.90;;;;;;6283544;22;20413;-86
2023/02/16 11:48:11;;;;;;;;;;;;;;;;;;;;;
2023/02/16 11:51:04;;;;;;;27.30;20.30;;;13.10;99.90;;;;;;6311963;22;20960;-87
2023/02/16 11:53:36;;;;;;;34.40;19.30;;;13.00;99.90;;;;;;6299141;22;20446;-88
2023/02/16 11:56:11;;;;;;;26.07;18.33;;;13.00;99.90;;;;;;6303307;22;20366;-86
2023/02/16 11:58:37;;;;;;;26.07;18.40;;;13.00;99.90;;;;;;6320224;22;20366;-86
2023/02/16 12:01:38;;;;;;;27.50;19.67;;;13.00;99.90;;;;;;6284335;22;20489;-86
2023/02/16 12:04:04;;;;;;;28.03;18.97;;;13.10;99.90;;;;;;6316510;22;20401;-86
2023/02/16 12:07:05;;;;;;;26.70;19.30;;;13.20;99.90;;;;;;6285112;22;20874;-87
2023/02/16 12:10:10;;;;;;;;;;;;;;;;;;;;;
2023/02/16 12:12:48;;;;;;;;;;;;;;;;;;;;;
2023/02/16 12:15:21;;;;;;;27.57;19.40;;;13.50;99.90;;;;;;6309078;22;20423;-87
2023/02/16 12:18:19;;;;;;;26.40;19.77;;;13.60;99.90;;;;;;6307975;22;20351;-86
2023/02/16 12:21:01;;;;;;;26.63;19.17;;;13.60;99.90;;;;;;6309004;22;20397;-86
2023/02/16 12:24:11;;;;;;;30.70;20.77;;;13.40;99.90;;;;;;6281554;22;20402;-86
2023/02/16 12:26:50;;;;;;;29.20;21.30;;;13.30;99.90;;;;;;6311129;22;20392;-85
2023/02/16 12:29:41;;;;;;;;;;;;;;;;;;;;;
2023/02/16 12:32:32;;;;;;;31.47;21.60;;;13.10;99.90;;;;;;6310930;22;20469;-87
2023/02/16 12:35:41;;;;;;;28.80;20.80;;;13.00;99.90;;;;;;6311673;22;20370;-86
2023/02/16 12:38:21;;;;;;;28.70;21.33;;;13.00;1.00;;;;;;6314437;22;20388;-85
2023/02/16 12:41:14;;;;;;;27.53;20.93;;;13.20;1.00;;;;;;6313006;22;20397;-86
2023/02/16 12:43:50;;;;;;;29.40;19.70;;;13.50;1.00;;;;;;6285640;22;20383;-86
2023/02/16 12:46:28;;;;;;;27.10;19.10;;;13.90;1.00;;;;;;6311005;22;20418;-86
2023/02/16 12:49:23;;;;;;;30.60;21.13;;;14.30;99.90;;;;;;6311078;22;20385;-86
2023/02/16 12:52:06;;;;;;;39.27;22.20;;;14.80;99.90;;;;;;6282044;22;20424;-86
2023/02/16 12:54:54;;;;;;;32.33;20.80;;;15.10;99.90;;;;;;6308926;22;20366;-86
2023/02/16 12:58:07;;;;;;;31.10;20.17;;;15.40;99.90;;;;;;6309533;22;20355;-86
2023/02/16 13:01:00;;;;;;;30.30;21.87;;;15.90;99.90;;;;;;6307655;22;20526;-88
2023/02/16 13:03:51;;;;;;;27.80;20.57;;;16.20;99.90;;;;;;6281512;22;20382;-87
2023/02/16 13:06:28;;;;;;;34.70;23.10;;;16.20;99.90;;;;;;6281699;22;20399;-88
2023/02/16 13:09:22;;;;;;;28.13;21.13;;;16.20;99.90;;;;;;6310796;22;20440;-86
2023/02/16 13:11:57;;;;;;;26.30;20.00;;;16.30;99.90;;;;;;6311512;22;20397;-85
2023/02/16 13:14:28;;;;;;;27.43;20.00;;;16.30;99.90;;;;;;6310811;22;20416;-87
2023/02/16 13:17:14;;;;;;;30.50;19.77;;;16.30;99.90;;;;;;6311762;22;20352;-87
2023/02/16 13:19:58;;;;;;;;;;;;;;;;;;;;;
2023/02/16 13:22:54;;;;;;;26.73;19.90;;;16.60;99.90;;;;;;6311555;22;20409;-86
2023/02/16 13:26:33;;;;;;;;;;;;;;;;;;;;;
2023/02/16 13:29:26;;;;;;;30.80;18.23;;;17.40;99.90;;;;;;6312478;22;20408;-85
2023/02/16 13:32:57;;;;;;;;;;;;;;;;;;;;;
2023/02/16 13:36:00;;;;;;;21.10;17.13;;;17.20;99.90;;;;;;6313426;22;20407;-86
2023/02/16 13:39:08;;;;;;;20.90;15.97;;;17.10;99.90;;;;;;6310750;22;20380;-85
2023/02/16 14:47:41;;;;;;;20.70;14.90;;;16.80;99.90;;;;;;6369601;22;20426;-87
2023/02/16 14:50:37;;;;;;;;;;;;;;;;;;;;;
2023/02/16 14:53:16;;;;;;;20.20;14.10;;;16.90;99.90;;;;;;6371204;22;20904;-87
2023/02/16 14:55:47;;;;;;;18.03;13.33;;;16.90;99.90;;;;;;6349514;22;20467;-87
2023/02/16 14:59:09;;;;;;;20.13;13.43;;;16.90;99.90;;;;;;6373247;22;20353;-86
2023/02/16 15:04:09;;;;;;;20.93;13.57;;;16.80;99.90;;;;;;6353335;22;20468;-86
2023/02/16 15:06:41;;;;;;;19.37;12.87;;;16.70;99.90;;;;;;6342051;22;20399;-88
2023/02/16 15:09:26;;;;;;;20.23;13.47;;;16.60;99.90;;;;;;6369403;22;20403;-87
2023/02/16 15:15:02;;;;;;;17.67;12.20;;;16.80;99.90;;;;;;6369010;22;20719;-86
2023/02/16 15:17:48;;;;;;;18.60;12.43;;;16.90;99.90;;;;;;6341400;22;20434;-86
2023/02/16 15:20:54;;;;;;;14.93;11.13;;;17.00;99.90;;;;;;6368076;22;20385;-87
2023/02/16 15:24:08;;;;;;;14.20;11.53;;;17.10;99.90;;;;;;6367856;22;20408;-86
2023/02/16 15:26:37;;;;;;;18.10;11.73;;;16.90;99.90;;;;;;6368505;22;20377;-87
2023/02/16 15:29:25;;;;;;;;;;;;;;;;;;;;;
2023/02/16 15:32:07;;;;;;;14.10;10.93;;;16.60;99.90;;;;;;6373990;22;20484;-86
2023/02/16 15:35:26;;;;;;;17.47;11.13;;;16.50;99.90;;;;;;6344326;22;20463;-87
2023/02/16 15:38:23;;;;;;;14.70;11.10;;;16.30;99.90;;;;;;6348271;22;20407;-84
2023/02/16 15:41:39;;;;;;;14.53;9.80;;;16.10;99.90;;;;;;6366733;22;20407;-84
2023/02/16 15:43:54;;;;;;;17.97;9.90;;;16.00;99.90;;;;;;6363790;22;20406;-83
2023/02/16 15:46:39;;;;;;;18.50;9.37;;;15.70;99.90;;;;;;6350621;22;20391;-84
2023/02/16 15:49:42;;;;;;;15.03;10.63;;;15.50;99.90;;;;;;6345225;22;20427;-83
2023/02/16 15:52:33;;;;;;;14.57;9.50;;;15.30;99.90;;;;;;6304533;22;20435;-84
2023/02/16 15:55:07;;;;;;;16.60;10.40;;;15.00;99.90;;;;;;6329512;22;20398;-83
2023/02/16 15:57:36;;;;;;;20.97;10.60;;;14.90;99.90;;;;;;6348249;22;20396;-84
2023/02/16 16:00:38;;;;;;;14.20;9.50;;;14.70;99.90;;;;;;6346199;22;20407;-85
2023/02/16 16:06:39;;;;;;;16.33;10.47;;;14.50;99.90;;;;;;6314028;22;20402;-83
2023/02/16 16:09:25;;;;;;;15.30;9.57;;;14.40;99.90;;;;;;6313702;22;20992;-86
2023/02/16 16:12:17;;;;;;;21.63;10.27;;;14.30;99.90;;;;;;6336479;22;20437;-86
2023/02/16 16:15:00;;;;;;;11.53;9.23;;;14.30;99.90;;;;;;6335707;22;20378;-86
2023/02/16 16:17:46;;;;;;;;;;;;;;;;;;;;;
2023/02/16 16:20:40;;;;;;;;;;;;;;;;;;;;;
2023/02/16 16:23:23;;;;;;;15.03;9.70;;;14.20;99.90;;;;;;6338209;22;20432;-86
2023/02/16 16:25:53;;;;;;;17.90;10.00;;;14.10;99.90;;;;;;6309818;22;20365;-85
2023/02/16 16:28:38;;;;;;;11.23;8.53;;;14.10;99.90;;;;;;6340213;22;20743;-85
2023/02/16 16:31:17;;;;;;;12.17;8.83;;;14.00;99.90;;;;;;6341253;22;20453;-86
2023/02/16 16:33:52;;;;;;;13.47;8.20;;;14.00;99.90;;;;;;6290177;22;20478;-85
2023/02/16 16:36:18;;;;;;;13.97;9.30;;;13.90;99.90;;;;;;6340138;22;20916;-85
2023/02/16 16:38:46;;;;;;;13.10;8.47;;;13.80;99.90;;;;;;6337575;22;20405;-86